Arjeplog, Sweden

12:07 AM CEST on August 30, 2014 (GMT +0200)
Arvidsjaur | Change Station
CLOSE
Current Station
Airport
Location: ARVIDSJAUR,
Elevation: 1243 ft
Nearby Weather Stations

Elev 1243 ft 65.59 °N, 19.28 °E | Updated 17 minutes ago

Overcast
Overcast
50 °F
Feels Like 50 °F
N
0
Wind Variable Wind from North

Today
High -- | Low -- °F
--% Chance of Precip.
Yesterday
High -- | Low -- °F
Precip. -- in
5:16 AM 8:19 PM
Waxing Crescent, 17% visible
Pressure 30.06 in
Visibility 6.2 miles
Clouds Overcast 4900 ft
Dew Point 46 °F
Humidity 87%
Rainfall 0.00 in
Snow Depth Not available.
UV 0 out of 12
Pollen Not available.
Air Quality Not available.
Flu Activity Not available.
METAR ESNX 292150Z AUTO 00000KT 9999NDV OVC049/// 10/08 Q1018

More Conditions Fewer Conditions

Pressure 30.06 in
Visibility 6.2 miles
Clouds Overcast 4900 ft
Dew Point 46 °F
Humidity 87%
Rainfall 0.00 in
Snow Depth Not available.
UV 0 out of 12
Pollen Not available.
Air Quality Not available.
Flu Activity Not available.
METAR ESNX 292150Z AUTO 00000KT 9999NDV OVC049/// 10/08 Q1018

More Conditions Fewer Conditions

10-Day Weather Forecast

Almanac

Astronomy

Aug. 30, 2014 Rise Set
Actual Time 5:16 AM CEST 8:19 PM CEST
Civil Twilight 4:16 AM CEST 9:19 PM CEST
Nautical Twilight 2:43 AM CEST 10:49 PM CEST
Astronomical Twilight Sun does not rise Sun does not rise
Moon 11:51 AM CEST (8/30) 8:31 PM CEST (8/30)
Length of Visible Light 17h 03m
Length of Day
15h 03m
Tomorrow will be 7m 12s shorter.
Waxing Crescent, 17% of the Moon is Illuminated
Aug 29
Waxing Crescent
Sep 2
First Quarter
Sep 8
Full
Sep 15
Last Quarter
Sep 24
New

Yesterday's Extremes

Country Highs Country Lows

Community

WunderPhotos

Upload Photos

1,748,354 photos uploaded!

Nearby

Snow Depth

Not available.

Earthquake Activity

City Distance Mag. Time & Date
No recent earthquake activity has been reported nearby.
Minimum magnitude displayed is 2.5.

Coastal Water Temperatures

Place Temperature
No Stations Reporting

Nearby Weather Stations